createdAt,value
2022-08-30T00:00:32.742Z,80.31
2022-08-30T00:03:02.249Z,80.20
2022-08-30T00:05:31.481Z,80.27
2022-08-30T00:08:00.221Z,80.10
2022-08-30T00:10:30.705Z,80.02
2022-08-30T00:13:00.483Z,80.28
2022-08-30T00:15:30.009Z,80.08
2022-08-30T00:17:59.967Z,80.20
2022-08-30T00:20:30.629Z,80.18
2022-08-30T00:23:20.874Z,80.77
2022-08-30T00:25:49.150Z,80.09
2022-08-30T00:28:17.979Z,79.85
2022-08-30T00:30:47.530Z,79.66
2022-08-30T00:33:15.991Z,79.17
2022-08-30T00:35:45.531Z,79.29
2022-08-30T00:38:15.243Z,78.84
2022-08-30T00:43:37.828Z,79.01
2022-08-30T00:46:08.966Z,79.18
2022-08-30T00:48:42.897Z,78.94
2022-08-30T00:51:13.998Z,78.89
2022-08-30T00:53:47.423Z,78.79
2022-08-30T00:56:18.679Z,78.95
2022-08-30T00:58:51.411Z,78.71
2022-08-30T01:01:21.179Z,78.79
2022-08-30T01:03:51.235Z,78.82
2022-08-30T01:06:19.361Z,78.65
2022-08-30T01:08:49.231Z,78.48
2022-08-30T01:11:22.475Z,78.47
2022-08-30T01:13:52.879Z,78.53
2022-08-30T01:16:24.110Z,78.74
2022-08-30T01:18:55.594Z,78.58
2022-08-30T01:21:53.370Z,78.65
2022-08-30T01:24:22.601Z,78.87
2022-08-30T01:26:50.637Z,79.14
2022-08-30T01:29:23.987Z,79.08
2022-08-30T01:31:52.180Z,79.16
2022-08-30T01:34:20.511Z,78.94
2022-08-30T01:36:50.233Z,78.98
2022-08-30T01:39:19.916Z,78.84
2022-08-30T01:41:48.129Z,78.87
2022-08-30T01:44:18.142Z,79.14
2022-08-30T01:46:48.215Z,79.03
2022-08-30T01:49:23.078Z,78.72
2022-08-30T01:52:00.738Z,78.58
2022-08-30T01:54:33.274Z,78.46
2022-08-30T01:57:09.077Z,78.85
2022-08-30T01:59:39.107Z,78.09
2022-08-30T02:02:07.596Z,77.71
2022-08-30T02:04:37.506Z,77.63
2022-08-30T02:07:05.332Z,76.64
2022-08-30T02:09:33.565Z,76.81
2022-08-30T02:12:03.199Z,76.39
2022-08-30T02:14:31.270Z,76.41
2022-08-30T02:16:59.429Z,76.45
2022-08-30T02:19:27.562Z,76.10
2022-08-30T02:21:55.740Z,76.59
2022-08-30T02:24:23.896Z,76.30
2022-08-30T02:26:54.253Z,76.63
2022-08-30T02:29:23.767Z,76.80
2022-08-30T02:31:53.211Z,76.60
2022-08-30T02:34:21.710Z,76.21
2022-08-30T02:36:49.921Z,76.62
2022-08-30T02:39:17.929Z,76.44
2022-08-30T02:41:46.212Z,76.77
2022-08-30T02:44:14.581Z,76.45
2022-08-30T02:46:42.681Z,76.81
2022-08-30T02:49:32.580Z,77.04
2022-08-30T02:51:59.473Z,76.87
2022-08-30T02:54:27.821Z,76.89
2022-08-30T02:56:56.811Z,76.68
2022-08-30T02:59:24.787Z,77.05
2022-08-30T03:01:54.220Z,76.76
2022-08-30T03:04:26.738Z,76.85
2022-08-30T03:06:55.758Z,76.99
2022-08-30T03:09:25.273Z,76.62
2022-08-30T03:11:53.326Z,76.63
2022-08-30T03:14:21.532Z,77.04
2022-08-30T03:17:13.795Z,76.52
2022-08-30T03:19:45.456Z,76.60
2022-08-30T03:22:14.133Z,76.62
2022-08-30T03:24:43.023Z,76.60
2022-08-30T03:27:11.071Z,76.45
2022-08-30T03:29:39.990Z,76.77
2022-08-30T03:32:08.353Z,76.87
2022-08-30T03:34:36.531Z,77.04
2022-08-30T03:37:04.588Z,77.18
2022-08-30T03:39:33.654Z,77.00
2022-08-30T03:42:01.768Z,77.04
2022-08-30T03:44:31.189Z,76.88
2022-08-30T03:46:59.541Z,77.09
2022-08-30T03:49:27.744Z,77.04
2022-08-30T03:51:55.643Z,77.15
2022-08-30T03:54:24.958Z,77.21
2022-08-30T03:56:53.214Z,77.08
2022-08-30T03:59:21.263Z,77.32
2022-08-30T04:01:51.174Z,77.30
2022-08-30T04:04:21.045Z,76.92
2022-08-30T04:06:50.328Z,76.88
2022-08-30T04:09:21.980Z,77.05
2022-08-30T04:11:50.461Z,77.16
2022-08-30T04:14:19.291Z,76.76
2022-08-30T04:16:48.453Z,76.78
2022-08-30T04:19:16.600Z,76.97
2022-08-30T04:21:45.677Z,76.82
2022-08-30T04:24:16.853Z,76.90
2022-08-30T04:26:44.964Z,76.77
2022-08-30T04:29:16.928Z,76.94
2022-08-30T04:31:46.502Z,76.87
2022-08-30T04:34:15.579Z,76.79
2022-08-30T04:36:48.244Z,76.88
2022-08-30T04:39:20.251Z,77.00
2022-08-30T04:41:49.186Z,76.81
2022-08-30T04:44:19.271Z,76.45
2022-08-30T04:46:48.941Z,76.74
2022-08-30T04:49:16.946Z,76.48
2022-08-30T04:51:44.912Z,76.55
2022-08-30T04:54:13.534Z,76.43
2022-08-30T04:56:41.618Z,76.67
2022-08-30T04:59:10.023Z,76.89
2022-08-30T05:01:45.373Z,76.12
2022-08-30T05:04:15.428Z,75.72
2022-08-30T05:06:43.641Z,75.31
2022-08-30T05:09:12.592Z,75.04
2022-08-30T05:11:40.711Z,74.98
2022-08-30T05:14:08.693Z,74.66
2022-08-30T05:16:38.106Z,73.80
2022-08-30T05:19:06.431Z,73.63
2022-08-30T05:21:34.690Z,72.99
2022-08-30T05:24:03.782Z,72.39
2022-08-30T05:26:34.463Z,72.26
2022-08-30T05:29:02.678Z,71.65
2022-08-30T05:31:34.704Z,71.07
2022-08-30T05:34:03.296Z,70.43
2022-08-30T05:36:35.275Z,69.80
2022-08-30T05:39:04.706Z,68.64
2022-08-30T05:41:35.153Z,67.80
2022-08-30T05:44:09.009Z,67.84
2022-08-30T05:46:38.362Z,67.66
2022-08-30T05:49:08.373Z,67.61
2022-08-30T05:51:42.992Z,67.95
2022-08-30T05:54:14.170Z,68.24
2022-08-30T05:56:45.844Z,68.51
2022-08-30T05:59:15.798Z,68.22
2022-08-30T06:01:45.056Z,68.17
2022-08-30T06:04:14.794Z,68.44
2022-08-30T06:06:46.181Z,68.00
2022-08-30T06:09:15.651Z,67.65
2022-08-30T06:11:45.175Z,67.85
2022-08-30T06:14:15.751Z,68.07
2022-08-30T06:16:46.493Z,68.05
2022-08-30T06:19:16.647Z,68.02
2022-08-30T06:21:45.562Z,68.25
2022-08-30T06:24:13.819Z,67.93
2022-08-30T06:26:47.053Z,67.70
2022-08-30T06:29:22.449Z,68.16
2022-08-30T06:31:51.110Z,67.79
2022-08-30T06:34:19.632Z,67.54
2022-08-30T06:36:47.876Z,67.44
2022-08-30T06:39:16.132Z,67.34
2022-08-30T06:41:44.347Z,67.11
2022-08-30T06:44:13.527Z,67.48
2022-08-30T06:47:00.213Z,67.40
2022-08-30T06:49:28.572Z,67.47
2022-08-30T06:51:56.710Z,67.62
2022-08-30T06:54:24.934Z,68.01
2022-08-30T06:56:58.719Z,67.52
2022-08-30T06:59:28.414Z,67.22
2022-08-30T07:01:57.193Z,67.31
2022-08-30T07:04:26.835Z,67.05
2022-08-30T07:06:54.929Z,66.53
2022-08-30T07:09:23.294Z,66.33
2022-08-30T07:11:55.232Z,66.46
2022-08-30T07:14:23.827Z,66.33
2022-08-30T07:16:52.319Z,66.37
2022-08-30T07:19:21.561Z,65.42
2022-08-30T07:21:51.256Z,65.30
2022-08-30T07:24:20.518Z,64.88
2022-08-30T07:26:53.559Z,65.33
2022-08-30T07:29:22.102Z,65.43
2022-08-30T07:31:50.832Z,65.24
2022-08-30T07:34:21.454Z,64.94
2022-08-30T07:36:51.615Z,65.12
2022-08-30T07:39:20.413Z,64.72
2022-08-30T07:41:49.605Z,64.55
2022-08-30T07:44:18.589Z,64.50
2022-08-30T07:46:46.727Z,63.88
2022-08-30T07:49:14.932Z,63.85
2022-08-30T07:51:43.235Z,63.84
2022-08-30T07:54:11.313Z,63.63
2022-08-30T07:56:39.630Z,63.04
2022-08-30T07:59:07.628Z,62.77
2022-08-30T08:01:36.037Z,62.80
2022-08-30T08:04:05.655Z,62.69
2022-08-30T08:06:34.931Z,62.43
2022-08-30T08:09:03.667Z,62.94
2022-08-30T08:11:34.084Z,63.16
2022-08-30T08:14:03.984Z,63.78
2022-08-30T08:16:33.687Z,64.11
2022-08-30T08:19:03.802Z,64.35
2022-08-30T08:21:31.783Z,64.63
2022-08-30T08:23:59.982Z,65.19
2022-08-30T08:26:29.845Z,65.65
2022-08-30T08:28:58.790Z,65.82
2022-08-30T08:31:33.428Z,65.70
2022-08-30T08:34:06.336Z,65.85
2022-08-30T08:36:36.632Z,66.21
2022-08-30T08:39:06.635Z,65.73
2022-08-30T08:41:41.547Z,65.79
2022-08-30T08:44:53.002Z,65.71
2022-08-30T08:47:43.366Z,66.03
2022-08-30T08:50:18.839Z,66.15
2022-08-30T08:53:45.768Z,66.41
2022-08-30T08:56:24.549Z,66.71
2022-08-30T08:58:57.327Z,66.72
2022-08-30T09:01:28.710Z,66.85
2022-08-30T09:03:59.905Z,67.38
2022-08-30T09:06:33.702Z,67.48
2022-08-30T09:09:01.849Z,67.74
2022-08-30T09:11:35.336Z,68.21
2022-08-30T09:14:04.527Z,68.36
2022-08-30T09:16:52.250Z,68.44
2022-08-30T09:19:34.450Z,68.26
2022-08-30T09:22:13.201Z,68.36
2022-08-30T09:24:46.766Z,68.49
2022-08-30T09:27:23.794Z,68.67
2022-08-30T09:30:06.732Z,69.01
2022-08-30T09:32:53.332Z,68.78
2022-08-30T09:35:37.269Z,68.37
2022-08-30T09:38:26.047Z,68.31
2022-08-30T09:40:57.955Z,68.28
2022-08-30T09:43:32.823Z,68.01
2022-08-30T09:46:04.005Z,67.75
2022-08-30T09:48:46.133Z,67.74
2022-08-30T09:51:14.018Z,67.93
2022-08-30T09:54:17.442Z,66.96
2022-08-30T09:57:13.125Z,66.35
2022-08-30T10:00:04.218Z,65.53
2022-08-30T10:03:03.438Z,64.79
2022-08-30T10:06:13.510Z,64.93
2022-08-30T10:09:04.344Z,64.87
2022-08-30T10:11:54.721Z,65.20
2022-08-30T10:14:37.421Z,65.43
2022-08-30T10:17:22.321Z,65.90
2022-08-30T10:20:20.470Z,66.24
2022-08-30T10:22:57.639Z,66.76
2022-08-30T10:25:34.817Z,66.86
2022-08-30T10:28:24.413Z,66.79
2022-08-30T10:31:28.068Z,67.03
2022-08-30T10:34:04.127Z,67.26
2022-08-30T10:36:40.999Z,67.48
2022-08-30T10:39:15.331Z,67.73
2022-08-30T10:41:52.431Z,68.01
2022-08-30T10:44:34.099Z,68.29
2022-08-30T10:47:31.605Z,68.33
2022-08-30T10:50:23.682Z,68.69
2022-08-30T10:52:55.696Z,68.79
2022-08-30T10:55:36.586Z,69.02
2022-08-30T10:58:07.277Z,69.08
2022-08-30T11:01:02.204Z,69.45
2022-08-30T11:04:08.230Z,69.80
2022-08-30T11:07:23.747Z,69.83
2022-08-30T11:10:17.245Z,69.81
2022-08-30T11:13:04.622Z,69.71
2022-08-30T11:15:55.850Z,69.99
2022-08-30T11:18:26.200Z,70.09
2022-08-30T11:21:16.340Z,70.27
2022-08-30T11:23:59.066Z,70.62
2022-08-30T11:26:55.403Z,70.59
2022-08-30T11:29:40.133Z,70.66
2022-08-30T11:32:32.634Z,70.62
2022-08-30T11:35:01.487Z,70.65
2022-08-30T11:37:37.994Z,70.95
2022-08-30T11:40:14.271Z,71.22
2022-08-30T11:42:48.503Z,71.06
2022-08-30T11:45:30.255Z,71.38
2022-08-30T11:48:01.298Z,71.44
2022-08-30T11:50:53.553Z,71.55
2022-08-30T11:53:34.418Z,71.45
2022-08-30T11:56:25.057Z,71.72
2022-08-30T11:59:20.785Z,71.99
2022-08-30T12:01:52.338Z,71.88
2022-08-30T12:04:20.766Z,72.15
2022-08-30T12:06:54.801Z,72.61
2022-08-30T12:09:27.248Z,72.59
2022-08-30T12:12:00.717Z,73.09
2022-08-30T12:14:54.171Z,73.40
2022-08-30T12:17:43.387Z,73.67
2022-08-30T12:20:30.683Z,73.98
2022-08-30T12:23:22.207Z,74.22
2022-08-30T12:26:11.048Z,74.61
2022-08-30T12:28:41.960Z,74.78
2022-08-30T12:31:17.214Z,75.17
2022-08-30T12:33:51.703Z,75.61
2022-08-30T12:36:41.490Z,75.86
2022-08-30T12:39:14.274Z,75.99
2022-08-30T12:41:43.857Z,76.04
2022-08-30T12:44:20.561Z,76.41
2022-08-30T12:46:57.148Z,76.58
2022-08-30T12:49:32.098Z,77.03
2022-08-30T12:52:29.483Z,77.33
2022-08-30T12:55:28.989Z,77.42
2022-08-30T12:58:10.598Z,77.51
2022-08-30T13:00:47.367Z,77.80
2022-08-30T13:03:24.605Z,77.99
2022-08-30T13:05:54.200Z,78.32
2022-08-30T13:08:52.081Z,78.45
2022-08-30T13:11:25.489Z,78.48
2022-08-30T13:14:22.188Z,78.93
2022-08-30T13:16:50.675Z,78.96
2022-08-30T13:19:36.699Z,79.14
2022-08-30T13:22:06.205Z,79.32
2022-08-30T13:24:35.081Z,79.70
2022-08-30T13:27:12.641Z,79.81
2022-08-30T13:29:41.191Z,79.96
2022-08-30T13:32:14.747Z,80.01
2022-08-30T13:34:43.138Z,80.14
2022-08-30T13:40:16.430Z,80.11
2022-08-30T13:42:45.208Z,80.20
2022-08-30T13:48:07.730Z,80.45
2022-08-30T13:50:35.703Z,80.54
2022-08-30T13:53:03.726Z,80.99
2022-08-30T13:55:33.838Z,81.22
2022-08-30T13:58:01.856Z,81.38
2022-08-30T14:00:34.755Z,81.56
2022-08-30T14:03:08.141Z,81.74
2022-08-30T14:05:49.358Z,81.72
2022-08-30T14:11:18.718Z,81.73
2022-08-30T14:16:38.966Z,81.32
2022-08-30T14:19:07.830Z,81.23
2022-08-30T14:21:37.149Z,80.86
2022-08-30T14:24:07.107Z,80.38
2022-08-30T14:26:46.153Z,80.24
2022-08-30T14:29:19.372Z,79.72
2022-08-30T14:31:49.448Z,79.48
2022-08-30T14:34:19.221Z,79.33
2022-08-30T14:36:47.559Z,79.43
2022-08-30T14:39:20.023Z,79.45
2022-08-30T14:41:55.328Z,79.25
2022-08-30T14:44:25.022Z,79.54
2022-08-30T14:46:53.773Z,79.64
2022-08-30T14:49:22.410Z,79.58
2022-08-30T14:51:52.386Z,79.65
2022-08-30T14:54:31.474Z,79.49
2022-08-30T14:56:59.565Z,79.73
2022-08-30T15:02:13.926Z,79.69
2022-08-30T15:04:42.013Z,79.84
2022-08-30T15:07:13.612Z,79.95
2022-08-30T15:09:42.420Z,80.03
2022-08-30T15:12:10.968Z,79.86
2022-08-30T15:14:40.242Z,79.88
2022-08-30T15:17:09.576Z,79.69
2022-08-30T15:19:37.638Z,79.85
2022-08-30T15:22:08.303Z,79.77
2022-08-30T15:24:36.515Z,79.72
2022-08-30T15:27:06.074Z,79.97
2022-08-30T15:29:34.491Z,80.19
2022-08-30T15:32:05.420Z,80.23
2022-08-30T15:34:33.745Z,80.17
2022-08-30T15:37:01.961Z,80.24
2022-08-30T15:39:31.393Z,80.40
2022-08-30T15:42:01.465Z,80.40
2022-08-30T15:44:34.427Z,80.46
2022-08-30T15:47:04.583Z,80.64
2022-08-30T15:49:32.953Z,80.69
2022-08-30T15:52:22.849Z,80.87
2022-08-30T15:54:50.817Z,80.80
2022-08-30T15:57:20.087Z,80.49
2022-08-30T15:59:48.406Z,80.72
2022-08-30T16:02:17.089Z,80.73
2022-08-30T16:04:46.485Z,80.95
2022-08-30T16:07:16.265Z,80.91
2022-08-30T16:09:44.480Z,80.89
2022-08-30T16:12:12.480Z,80.71
2022-08-30T16:14:41.072Z,81.21
2022-08-30T16:17:11.447Z,81.05
2022-08-30T16:19:39.445Z,80.86
2022-08-30T16:22:10.932Z,80.67
2022-08-30T16:24:39.807Z,80.90
2022-08-30T16:27:09.489Z,80.94
2022-08-30T16:29:37.717Z,80.71
2022-08-30T16:32:05.859Z,80.71
2022-08-30T16:34:33.862Z,80.47
2022-08-30T16:37:02.120Z,80.65
2022-08-30T16:39:30.221Z,80.71
2022-08-30T16:41:58.862Z,80.60
2022-08-30T16:44:29.989Z,80.62
2022-08-30T16:46:58.215Z,80.78
2022-08-30T16:49:26.417Z,80.63
2022-08-30T16:51:55.529Z,80.61
2022-08-30T16:54:25.341Z,80.64
2022-08-30T16:56:53.864Z,80.82
2022-08-30T16:59:23.048Z,81.09
2022-08-30T17:01:51.646Z,81.02
2022-08-30T17:04:20.601Z,80.83
2022-08-30T17:06:51.179Z,81.05
2022-08-30T17:09:20.757Z,80.99
2022-08-30T17:11:50.633Z,81.03
2022-08-30T17:14:27.581Z,81.11
2022-08-30T17:17:00.384Z,81.03
2022-08-30T17:19:32.651Z,81.22
2022-08-30T17:22:02.924Z,81.08
2022-08-30T17:24:30.901Z,81.27
2022-08-30T17:27:01.565Z,81.02
2022-08-30T17:29:29.667Z,81.22
2022-08-30T17:31:58.828Z,81.28
2022-08-30T17:34:28.628Z,81.15
2022-08-30T17:36:59.594Z,81.33
2022-08-30T17:39:28.713Z,81.28
2022-08-30T17:41:57.199Z,81.17
2022-08-30T17:44:29.849Z,81.40
2022-08-30T17:46:59.533Z,81.50
2022-08-30T17:49:29.721Z,81.26
2022-08-30T17:51:58.625Z,81.39
2022-08-30T17:54:28.885Z,81.38
2022-08-30T17:56:59.827Z,81.42
2022-08-30T17:59:29.303Z,81.17
2022-08-30T18:02:02.357Z,81.23
2022-08-30T18:04:31.820Z,81.28
2022-08-30T18:07:00.207Z,81.41
2022-08-30T18:12:18.197Z,81.47
2022-08-30T18:14:52.945Z,81.35
2022-08-30T18:17:22.644Z,81.43
2022-08-30T18:19:51.921Z,81.43
2022-08-30T18:22:20.005Z,81.53
2022-08-30T18:24:48.169Z,81.84
2022-08-30T18:27:16.283Z,82.02
2022-08-30T18:29:44.498Z,82.34
2022-08-30T18:32:12.884Z,82.47
2022-08-30T18:34:42.487Z,82.30
2022-08-30T18:37:12.529Z,82.31
2022-08-30T18:39:41.917Z,82.46
2022-08-30T18:42:10.115Z,82.66
2022-08-30T18:44:38.457Z,82.69
2022-08-30T18:47:09.704Z,82.65
2022-08-30T18:49:38.413Z,82.73
2022-08-30T18:52:09.007Z,82.80
2022-08-30T18:54:49.706Z,82.80
2022-08-30T18:57:21.457Z,82.82
2022-08-30T18:59:50.840Z,82.79
2022-08-30T19:02:18.977Z,82.78
2022-08-30T19:04:47.708Z,82.83
2022-08-30T19:07:20.699Z,82.81
2022-08-30T19:09:49.557Z,82.93
2022-08-30T19:12:19.623Z,83.14
2022-08-30T19:14:49.364Z,82.93
2022-08-30T19:17:17.640Z,83.05
2022-08-30T19:19:49.240Z,83.05
2022-08-30T19:22:27.388Z,82.88
2022-08-30T19:24:58.713Z,83.16
2022-08-30T19:27:38.552Z,83.09
2022-08-30T19:30:17.320Z,83.16
2022-08-30T19:32:49.600Z,83.18
2022-08-30T19:35:19.029Z,83.19
2022-08-30T19:37:47.654Z,82.78
2022-08-30T19:40:19.612Z,82.93
2022-08-30T19:42:50.301Z,83.00
2022-08-30T19:45:23.292Z,83.00
2022-08-30T19:47:54.208Z,82.94
2022-08-30T19:50:23.090Z,83.07
2022-08-30T19:52:54.831Z,83.07
2022-08-30T19:55:28.606Z,82.89
2022-08-30T19:57:59.701Z,83.04
2022-08-30T20:00:31.156Z,82.98
2022-08-30T20:03:01.887Z,83.01
2022-08-30T20:05:31.578Z,83.08
2022-08-30T20:08:00.545Z,82.91
2022-08-30T20:10:30.801Z,83.07
2022-08-30T20:12:59.291Z,83.12
2022-08-30T20:15:27.682Z,83.06
2022-08-30T20:18:05.995Z,83.12
2022-08-30T20:20:42.651Z,82.95
2022-08-30T20:23:22.876Z,83.09
2022-08-30T20:24:26.632Z,81.29
2022-08-30T20:25:54.015Z,83.30
2022-08-30T20:28:24.163Z,83.51
2022-08-30T20:30:53.238Z,83.27
2022-08-30T20:33:22.234Z,83.55
2022-08-30T20:35:53.643Z,83.43
2022-08-30T20:38:22.520Z,83.62
2022-08-30T20:40:53.622Z,83.70
2022-08-30T20:43:24.772Z,84.12
2022-08-30T20:45:53.494Z,84.19
2022-08-30T20:48:23.312Z,84.37
2022-08-30T20:50:53.832Z,84.44
2022-08-30T20:53:21.854Z,84.32
2022-08-30T20:55:49.940Z,84.18
2022-08-30T20:58:18.420Z,84.09
2022-08-30T21:00:52.275Z,84.25
2022-08-30T21:03:26.205Z,84.44
2022-08-30T21:05:57.505Z,84.49
2022-08-30T21:08:25.997Z,84.78
2022-08-30T21:11:00.114Z,84.72
2022-08-30T21:13:28.249Z,84.48
2022-08-30T21:16:03.443Z,84.73
2022-08-30T21:18:36.087Z,84.74
2022-08-30T21:21:16.568Z,84.72
2022-08-30T21:23:44.903Z,84.69
2022-08-30T21:26:12.943Z,84.50
2022-08-30T21:28:41.080Z,84.53
2022-08-30T21:31:12.745Z,84.29
2022-08-30T21:33:41.823Z,83.86
2022-08-30T21:36:29.558Z,84.29
2022-08-30T21:39:00.594Z,84.24
2022-08-30T21:41:32.362Z,83.90
2022-08-30T21:44:03.300Z,84.04
2022-08-30T21:46:33.108Z,84.02
2022-08-30T21:49:03.784Z,84.25
2022-08-30T21:51:36.920Z,84.31
2022-08-30T21:54:07.805Z,84.35
2022-08-30T21:56:36.865Z,84.78
2022-08-30T21:59:06.239Z,85.08
2022-08-30T22:01:35.480Z,85.06
2022-08-30T22:04:09.776Z,85.05
2022-08-30T22:06:43.162Z,84.84
2022-08-30T22:09:14.980Z,84.78
2022-08-30T22:11:45.999Z,84.31
2022-08-30T22:14:15.660Z,84.10
2022-08-30T22:16:45.322Z,84.18
2022-08-30T22:19:16.939Z,84.68
2022-08-30T22:21:48.675Z,84.85
2022-08-30T22:24:17.768Z,84.71
2022-08-30T22:26:48.819Z,84.56
2022-08-30T22:29:17.984Z,84.58
2022-08-30T22:31:45.987Z,84.84
2022-08-30T22:34:15.818Z,84.59
2022-08-30T22:36:43.793Z,84.84
2022-08-30T22:39:11.835Z,85.21
2022-08-30T22:41:44.097Z,84.83
2022-08-30T22:44:13.154Z,84.78
2022-08-30T22:46:41.274Z,84.89
2022-08-30T22:49:11.097Z,84.95
2022-08-30T22:51:40.658Z,85.09
2022-08-30T22:54:10.951Z,84.78
2022-08-30T22:56:42.259Z,85.01
2022-08-30T22:59:10.293Z,84.36
2022-08-30T23:01:43.871Z,84.37
2022-08-30T23:04:13.788Z,84.62
2022-08-30T23:06:49.674Z,84.57
2022-08-30T23:09:18.529Z,84.56
2022-08-30T23:11:46.959Z,84.72
2022-08-30T23:14:15.859Z,84.53
2022-08-30T23:16:44.037Z,84.64
2022-08-30T23:19:12.293Z,85.09
2022-08-30T23:21:40.768Z,85.16
2022-08-30T23:24:27.703Z,85.11
2022-08-30T23:27:17.354Z,85.11
2022-08-30T23:30:03.926Z,85.18
2022-08-30T23:32:50.808Z,85.54
2022-08-30T23:35:39.648Z,85.50
2022-08-30T23:38:26.817Z,85.65
2022-08-30T23:41:13.231Z,86.06
2022-08-30T23:43:59.369Z,86.22
2022-08-30T23:46:45.842Z,86.10
2022-08-30T23:49:32.175Z,86.21
2022-08-30T23:52:18.678Z,86.21
2022-08-30T23:55:05.051Z,85.98
2022-08-30T23:57:52.972Z,86.05
